createdAt,value
2017-12-30T00:00:39.121Z,2.00
2017-12-30T00:03:05.381Z,2.83
2017-12-30T00:05:38.628Z,1.40
2017-12-30T00:08:05.630Z,1.63
2017-12-30T00:10:31.905Z,1.90
2017-12-30T00:12:58.185Z,1.63
2017-12-30T00:15:24.446Z,1.23
2017-12-30T00:17:50.717Z,1.80
2017-12-30T00:20:17.741Z,1.97
2017-12-30T00:22:44.101Z,0.80
2017-12-30T00:25:10.353Z,2.40
2017-12-30T00:27:36.629Z,1.83
2017-12-30T00:30:02.934Z,2.53
2017-12-30T00:32:29.194Z,5.27
2017-12-30T00:34:55.494Z,5.00
2017-12-30T00:37:21.749Z,11.50
2017-12-30T00:39:48.002Z,2.13
2017-12-30T00:42:14.348Z,3.83
2017-12-30T00:44:40.646Z,2.63
2017-12-30T00:47:06.905Z,3.70
2017-12-30T00:49:33.207Z,7.20
2017-12-30T00:51:59.474Z,4.23
2017-12-30T00:54:25.745Z,6.27
2017-12-30T00:56:52.023Z,0.80
2017-12-30T00:59:18.281Z,3.70
2017-12-30T01:01:44.543Z,3.03
2017-12-30T01:04:10.881Z,5.40
2017-12-30T01:06:37.150Z,4.10
2017-12-30T01:09:03.445Z,1.03
2017-12-30T01:11:29.725Z,1.17
2017-12-30T01:13:55.990Z,3.83
2017-12-30T01:16:23.008Z,2.03
2017-12-30T01:18:49.290Z,3.90
2017-12-30T01:21:15.577Z,1.47
2017-12-30T01:23:41.835Z,1.40
2017-12-30T01:26:08.113Z,2.40
2017-12-30T01:28:34.373Z,4.37
2017-12-30T01:31:00.734Z,1.23
2017-12-30T01:33:27.038Z,3.50
2017-12-30T01:35:53.349Z,2.90
2017-12-30T01:38:20.356Z,6.33
2017-12-30T01:40:46.645Z,3.90
2017-12-30T01:43:12.929Z,4.17
2017-12-30T01:45:39.266Z,4.23
2017-12-30T01:48:05.598Z,9.53
2017-12-30T01:50:31.886Z,8.90
2017-12-30T01:52:58.156Z,7.67
2017-12-30T01:55:24.433Z,5.30
2017-12-30T01:57:50.705Z,4.77
2017-12-30T02:00:17.744Z,4.57
2017-12-30T02:02:44.041Z,6.57
2017-12-30T02:05:10.334Z,11.93
2017-12-30T02:07:36.591Z,6.90
2017-12-30T02:10:02.958Z,10.13
2017-12-30T02:12:29.247Z,12.63
2017-12-30T02:17:28.649Z,8.87
2017-12-30T02:19:54.913Z,9.70
2017-12-30T02:22:21.927Z,8.03
2017-12-30T02:24:48.221Z,17.37
2017-12-30T02:27:14.487Z,18.63
2017-12-30T02:29:40.812Z,7.70
2017-12-30T02:32:07.077Z,8.20
2017-12-30T02:34:33.362Z,11.80
2017-12-30T02:36:59.617Z,15.83
2017-12-30T02:39:25.911Z,11.33
2017-12-30T02:41:52.182Z,11.93
2017-12-30T02:44:18.485Z,11.60
2017-12-30T02:46:45.636Z,14.23
2017-12-30T02:49:11.892Z,14.37
2017-12-30T02:51:38.140Z,17.17
2017-12-30T02:54:04.427Z,16.33
2017-12-30T02:56:30.723Z,18.40
2017-12-30T02:58:57.014Z,15.37
2017-12-30T03:01:23.355Z,25.77
2017-12-30T03:03:49.620Z,23.30
2017-12-30T03:06:16.678Z,18.20
2017-12-30T03:08:42.958Z,22.00
2017-12-30T03:11:09.961Z,14.13
2017-12-30T03:13:36.250Z,24.63
2017-12-30T03:16:02.546Z,12.77
2017-12-30T03:18:28.891Z,22.83
2017-12-30T03:20:55.150Z,20.40
2017-12-30T03:23:21.458Z,15.73
2017-12-30T03:25:47.708Z,34.37
2017-12-30T03:28:13.978Z,15.87
2017-12-30T03:30:40.279Z,21.53
2017-12-30T03:33:06.546Z,14.83
2017-12-30T03:35:32.796Z,29.87
2017-12-30T03:37:59.077Z,19.90
2017-12-30T03:40:25.468Z,19.93
2017-12-30T03:42:51.716Z,19.10
2017-12-30T03:45:18.054Z,13.70
2017-12-30T03:47:44.326Z,15.23
2017-12-30T03:50:11.332Z,22.80
2017-12-30T03:52:37.741Z,13.60
2017-12-30T03:55:04.035Z,20.43
2017-12-30T03:57:30.334Z,22.17
2017-12-30T03:59:56.627Z,20.50
2017-12-30T04:02:23.616Z,20.83
2017-12-30T04:04:49.878Z,13.50
2017-12-30T04:07:16.913Z,13.57
2017-12-30T04:09:43.174Z,15.50
2017-12-30T04:12:09.456Z,16.13
2017-12-30T04:14:35.745Z,22.57
2017-12-30T04:17:02.751Z,23.43
2017-12-30T04:19:29.018Z,19.00
2017-12-30T04:21:55.301Z,19.40
2017-12-30T04:24:21.586Z,18.97
2017-12-30T04:26:47.839Z,16.07
2017-12-30T04:29:14.873Z,20.03
2017-12-30T04:31:41.878Z,24.87
2017-12-30T04:34:08.124Z,19.83
2017-12-30T04:36:34.425Z,14.53
2017-12-30T04:39:01.418Z,14.00
2017-12-30T04:41:27.666Z,20.70
2017-12-30T04:43:53.985Z,25.03
2017-12-30T04:46:20.245Z,14.47
2017-12-30T04:48:47.233Z,19.03
2017-12-30T04:51:14.263Z,22.40
2017-12-30T04:53:41.270Z,13.53
2017-12-30T04:56:07.525Z,12.07
2017-12-30T04:58:34.558Z,16.40
2017-12-30T05:01:01.554Z,15.53
2017-12-30T05:03:30.438Z,20.00
2017-12-30T05:05:57.521Z,15.77
2017-12-30T05:08:23.769Z,23.77
2017-12-30T05:10:50.022Z,15.87
2017-12-30T05:13:17.060Z,16.97
2017-12-30T05:15:44.057Z,19.60
2017-12-30T05:18:10.701Z,24.10
2017-12-30T05:20:37.742Z,19.17
2017-12-30T05:23:04.749Z,19.43
2017-12-30T05:25:30.987Z,25.17
2017-12-30T05:27:58.015Z,17.50
2017-12-30T05:30:25.017Z,13.47
2017-12-30T05:32:51.269Z,9.63
2017-12-30T05:35:18.292Z,19.73
2017-12-30T05:37:45.293Z,16.10
2017-12-30T05:40:11.552Z,24.67
2017-12-30T05:42:37.830Z,17.27
2017-12-30T05:45:04.114Z,23.40
2017-12-30T05:47:30.365Z,19.30
2017-12-30T05:49:56.641Z,21.30
2017-12-30T05:52:22.892Z,23.23
2017-12-30T05:54:49.248Z,23.10
2017-12-30T05:57:15.542Z,22.27
2017-12-30T05:59:42.538Z,37.23
2017-12-30T06:02:08.814Z,23.17
2017-12-30T06:04:35.094Z,25.47
2017-12-30T06:07:01.346Z,28.00
2017-12-30T06:09:27.631Z,24.60
2017-12-30T06:11:54.644Z,21.80
2017-12-30T06:14:20.901Z,22.07
2017-12-30T06:16:47.160Z,30.53
2017-12-30T06:19:13.444Z,20.33
2017-12-30T06:21:39.698Z,32.40
2017-12-30T06:24:05.958Z,41.07
2017-12-30T06:26:32.238Z,17.20
2017-12-30T06:28:58.487Z,24.90
2017-12-30T06:31:24.758Z,36.43
2017-12-30T06:33:51.049Z,30.93
2017-12-30T06:36:17.310Z,28.20
2017-12-30T06:38:44.331Z,33.40
2017-12-30T06:41:10.613Z,23.53
2017-12-30T06:43:36.870Z,28.20
2017-12-30T06:46:03.898Z,31.93
2017-12-30T06:48:30.186Z,24.20
2017-12-30T06:50:56.453Z,23.80
2017-12-30T06:53:22.723Z,27.33
2017-12-30T06:55:49.005Z,27.50
2017-12-30T06:58:15.252Z,26.23
2017-12-30T07:00:41.521Z,28.20
2017-12-30T07:03:07.797Z,21.40
2017-12-30T07:05:34.037Z,19.47
2017-12-30T07:08:01.027Z,33.87
2017-12-30T07:10:27.299Z,40.43
2017-12-30T07:12:53.550Z,26.47
2017-12-30T07:15:19.827Z,19.33
2017-12-30T07:17:46.093Z,33.47
2017-12-30T07:20:12.354Z,28.77
2017-12-30T07:22:38.601Z,23.83
2017-12-30T07:25:05.006Z,18.50
2017-12-30T07:27:31.260Z,25.47
2017-12-30T07:29:57.513Z,26.20
2017-12-30T07:32:23.834Z,21.37
2017-12-30T07:34:50.099Z,20.37
2017-12-30T07:37:16.385Z,20.37
2017-12-30T07:39:42.672Z,25.87
2017-12-30T07:42:08.950Z,33.77
2017-12-30T07:44:35.230Z,33.27
2017-12-30T07:47:01.524Z,23.00
2017-12-30T07:49:27.789Z,28.67
2017-12-30T07:51:54.044Z,21.10
2017-12-30T07:54:20.322Z,25.47
2017-12-30T07:56:46.573Z,25.50
2017-12-30T07:59:12.830Z,15.27
2017-12-30T08:01:39.119Z,12.67
2017-12-30T08:04:06.117Z,15.17
2017-12-30T08:06:33.119Z,16.33
2017-12-30T08:08:59.401Z,15.23
2017-12-30T08:11:25.658Z,9.60
2017-12-30T08:13:52.016Z,15.07
2017-12-30T08:16:18.309Z,8.73
2017-12-30T08:18:44.590Z,15.87
2017-12-30T08:21:10.885Z,19.07
2017-12-30T08:23:37.157Z,26.87
2017-12-30T08:26:04.154Z,18.77
2017-12-30T08:28:30.401Z,11.17
2017-12-30T08:30:57.426Z,7.73
2017-12-30T08:33:24.422Z,16.27
2017-12-30T08:35:50.679Z,17.37
2017-12-30T08:38:17.761Z,15.93
2017-12-30T08:40:44.054Z,22.07
2017-12-30T08:43:10.369Z,18.27
2017-12-30T08:45:36.711Z,15.37
2017-12-30T08:48:03.137Z,20.70
2017-12-30T08:50:29.385Z,13.77
2017-12-30T08:52:55.742Z,14.93
2017-12-30T08:55:21.996Z,19.63
2017-12-30T08:57:48.259Z,15.13
2017-12-30T09:00:14.603Z,10.83
2017-12-30T09:02:40.883Z,18.13
2017-12-30T09:05:07.151Z,13.53
2017-12-30T09:07:33.468Z,10.80
2017-12-30T09:09:59.727Z,9.17
2017-12-30T09:12:26.010Z,9.17
2017-12-30T09:14:52.297Z,14.80
2017-12-30T09:17:18.642Z,11.23
2017-12-30T09:19:44.963Z,13.00
2017-12-30T09:22:11.250Z,11.60
2017-12-30T09:24:37.514Z,15.03
2017-12-30T09:27:04.517Z,9.87
2017-12-30T09:29:30.798Z,7.27
2017-12-30T09:31:57.062Z,9.37
2017-12-30T09:34:24.064Z,19.60
2017-12-30T09:36:50.349Z,10.13
2017-12-30T09:39:16.605Z,5.57
2017-12-30T09:41:42.856Z,9.43
2017-12-30T09:44:09.152Z,8.23
2017-12-30T09:46:36.185Z,7.90
2017-12-30T09:49:03.186Z,8.17
2017-12-30T09:51:29.469Z,11.10
2017-12-30T09:53:56.130Z,11.37
2017-12-30T09:56:22.863Z,8.87
2017-12-30T09:58:49.153Z,6.73
2017-12-30T10:01:17.903Z,7.80
2017-12-30T10:03:44.156Z,2.93
2017-12-30T10:06:10.437Z,5.33
2017-12-30T10:08:36.726Z,6.97
2017-12-30T10:11:04.079Z,7.67
2017-12-30T10:13:30.932Z,10.20
2017-12-30T10:15:57.213Z,5.77
2017-12-30T10:18:24.217Z,6.43
2017-12-30T10:20:50.498Z,5.27
2017-12-30T10:23:16.754Z,1.30
2017-12-30T10:25:43.053Z,1.70
2017-12-30T10:28:09.380Z,1.30
2017-12-30T10:30:35.758Z,3.60
2017-12-30T10:33:02.105Z,2.70
2017-12-30T10:35:31.380Z,3.37
2017-12-30T10:37:57.728Z,1.60
2017-12-30T10:40:24.090Z,1.90
2017-12-30T10:42:50.433Z,1.17
2017-12-30T10:45:16.745Z,1.37
2017-12-30T10:47:43.042Z,2.97
2017-12-30T10:50:09.381Z,1.50
2017-12-30T10:52:37.432Z,1.63
2017-12-30T10:55:03.730Z,2.67
2017-12-30T10:57:30.330Z,1.47
2017-12-30T11:00:04.434Z,1.73
2017-12-30T11:02:31.057Z,0.73
2017-12-30T11:04:57.447Z,0.60
2017-12-30T11:07:24.032Z,0.97
2017-12-30T11:09:50.351Z,1.27
2017-12-30T11:12:16.770Z,1.13
2017-12-30T11:14:43.067Z,1.23
2017-12-30T11:17:09.404Z,1.80
2017-12-30T11:19:35.669Z,2.43
2017-12-30T11:22:01.959Z,0.93
2017-12-30T11:24:28.241Z,2.70
2017-12-30T11:26:54.530Z,1.07
2017-12-30T11:29:20.780Z,0.67
2017-12-30T11:31:47.073Z,0.97
2017-12-30T11:34:13.344Z,0.53
2017-12-30T11:36:40.351Z,1.20
2017-12-30T11:39:06.645Z,1.13
2017-12-30T11:41:32.947Z,0.77
2017-12-30T11:43:59.247Z,0.70
2017-12-30T11:46:25.555Z,0.80
2017-12-30T11:48:51.898Z,0.70
2017-12-30T11:51:18.174Z,0.50
2017-12-30T11:53:45.193Z,0.50
2017-12-30T11:56:11.477Z,0.97
2017-12-30T11:58:37.734Z,0.50
2017-12-30T12:01:04.807Z,1.43
2017-12-30T12:03:31.107Z,2.17
2017-12-30T12:05:57.425Z,1.17
2017-12-30T12:08:25.612Z,0.60
2017-12-30T12:10:54.924Z,1.97
2017-12-30T12:13:23.409Z,3.50
2017-12-30T12:15:53.298Z,1.43
2017-12-30T12:18:19.549Z,1.17
2017-12-30T12:20:45.823Z,2.73
2017-12-30T12:23:12.111Z,1.63
2017-12-30T12:25:38.391Z,3.47
2017-12-30T12:28:04.736Z,2.73
2017-12-30T12:30:31.030Z,3.17
2017-12-30T12:32:57.289Z,3.20
2017-12-30T12:35:35.093Z,3.90
2017-12-30T12:38:02.088Z,3.77
2017-12-30T12:40:28.465Z,1.97
2017-12-30T12:42:54.748Z,4.83
2017-12-30T12:45:21.131Z,5.83
2017-12-30T12:47:47.425Z,2.87
2017-12-30T12:50:13.835Z,4.47
2017-12-30T12:52:40.188Z,6.07
2017-12-30T12:55:06.493Z,5.17
2017-12-30T12:57:32.857Z,11.67
2017-12-30T12:59:59.130Z,4.53
2017-12-30T13:02:25.429Z,5.47
2017-12-30T13:04:53.177Z,7.37
2017-12-30T13:07:19.666Z,8.00
2017-12-30T13:09:47.126Z,6.77
2017-12-30T13:12:15.607Z,6.90
2017-12-30T13:14:42.701Z,5.67
2017-12-30T13:17:09.697Z,5.10
2017-12-30T13:19:36.031Z,4.00
2017-12-30T13:22:02.339Z,3.90
2017-12-30T13:24:28.639Z,6.43
2017-12-30T13:26:54.925Z,8.00
2017-12-30T13:29:21.254Z,4.20
2017-12-30T13:31:47.566Z,6.17
2017-12-30T13:34:13.851Z,5.17
2017-12-30T13:36:40.878Z,13.73
2017-12-30T13:39:07.879Z,10.87
2017-12-30T13:41:34.197Z,5.80
2017-12-30T13:44:00.585Z,8.27
2017-12-30T13:46:26.858Z,6.23
2017-12-30T13:48:53.242Z,13.47
2017-12-30T13:51:19.531Z,7.23
2017-12-30T13:53:46.552Z,10.80
2017-12-30T13:56:12.897Z,11.70
2017-12-30T13:58:39.153Z,8.13
2017-12-30T14:01:06.457Z,11.77
2017-12-30T14:03:32.772Z,10.23
2017-12-30T14:05:59.138Z,8.97
2017-12-30T14:08:26.180Z,16.87
2017-12-30T14:10:52.538Z,9.27
2017-12-30T14:13:19.372Z,8.50
2017-12-30T14:15:45.743Z,10.63
2017-12-30T14:18:12.046Z,10.50
2017-12-30T14:20:38.425Z,9.37
2017-12-30T14:23:04.701Z,10.10
2017-12-30T14:25:31.021Z,7.17
2017-12-30T14:27:57.393Z,12.50
2017-12-30T14:30:23.769Z,11.17
2017-12-30T14:32:50.165Z,11.43
2017-12-30T14:35:16.526Z,10.80
2017-12-30T14:37:42.842Z,10.23
2017-12-30T14:40:09.151Z,19.90
2017-12-30T14:42:35.450Z,14.40
2017-12-30T14:45:01.789Z,12.73
2017-12-30T14:47:28.091Z,13.40
2017-12-30T14:49:54.358Z,21.93
2017-12-30T14:52:21.404Z,21.60
2017-12-30T14:54:47.707Z,22.60
2017-12-30T14:57:14.025Z,18.90
2017-12-30T14:59:40.333Z,24.23
2017-12-30T15:02:07.373Z,24.40
2017-12-30T15:04:33.650Z,22.03
2017-12-30T15:07:00.028Z,26.00
2017-12-30T15:09:26.405Z,26.67
2017-12-30T15:11:53.473Z,24.80
2017-12-30T15:14:19.785Z,22.30
2017-12-30T15:16:46.142Z,27.27
2017-12-30T15:19:12.441Z,26.50
2017-12-30T15:21:38.702Z,26.13
2017-12-30T15:24:05.859Z,23.57
2017-12-30T15:26:32.210Z,24.43
2017-12-30T15:28:58.785Z,20.60
2017-12-30T15:31:25.890Z,20.97
2017-12-30T15:33:52.165Z,17.47
2017-12-30T15:36:18.553Z,19.90
2017-12-30T15:38:44.940Z,26.07
2017-12-30T15:41:11.410Z,18.87
2017-12-30T15:43:38.224Z,18.40
2017-12-30T15:46:04.759Z,27.43
2017-12-30T15:48:31.145Z,25.23
2017-12-30T15:50:58.258Z,22.10
2017-12-30T15:53:24.593Z,17.47
2017-12-30T15:55:51.662Z,25.07
2017-12-30T15:58:17.999Z,28.27
2017-12-30T16:00:44.394Z,25.07
2017-12-30T16:03:11.448Z,27.33
2017-12-30T16:05:37.742Z,25.30
2017-12-30T16:08:04.097Z,28.33
2017-12-30T16:10:30.372Z,22.90
2017-12-30T16:12:56.745Z,26.03
2017-12-30T16:15:23.126Z,25.47
2017-12-30T16:17:49.443Z,25.13
2017-12-30T16:20:16.082Z,20.93
2017-12-30T16:22:43.289Z,21.07
2017-12-30T16:25:09.596Z,21.70
2017-12-30T16:27:36.225Z,19.77
2017-12-30T16:30:02.599Z,22.47
2017-12-30T16:32:29.295Z,27.70
2017-12-30T16:34:55.821Z,22.93
2017-12-30T16:37:22.133Z,22.40
2017-12-30T16:39:48.441Z,25.97
2017-12-30T16:42:14.709Z,25.27
2017-12-30T16:44:41.155Z,20.93
2017-12-30T16:47:07.493Z,26.50
2017-12-30T16:49:34.556Z,21.23
2017-12-30T16:52:00.942Z,24.83
2017-12-30T16:54:27.225Z,26.43
2017-12-30T16:56:53.499Z,29.77
2017-12-30T16:59:19.777Z,23.60
2017-12-30T17:01:46.034Z,17.23
2017-12-30T17:04:12.281Z,21.33
2017-12-30T17:06:38.586Z,17.30
2017-12-30T17:09:04.895Z,23.53
2017-12-30T17:11:31.136Z,23.73
2017-12-30T17:13:57.420Z,22.20
2017-12-30T17:16:23.705Z,17.70
2017-12-30T17:18:49.962Z,23.60
2017-12-30T17:21:16.254Z,18.53
2017-12-30T17:23:42.512Z,20.60
2017-12-30T17:26:08.779Z,20.90
2017-12-30T17:28:35.077Z,24.93
2017-12-30T17:31:01.362Z,26.17
2017-12-30T17:33:27.684Z,17.83
2017-12-30T17:35:53.968Z,20.13
2017-12-30T17:38:20.225Z,25.57
2017-12-30T17:40:46.485Z,24.83
2017-12-30T17:43:12.774Z,21.30
2017-12-30T17:45:39.139Z,21.30
2017-12-30T17:48:06.132Z,19.97
2017-12-30T17:50:32.417Z,19.93
2017-12-30T17:52:59.107Z,22.73
2017-12-30T17:55:25.932Z,34.37
2017-12-30T17:57:52.541Z,35.37
2017-12-30T18:00:18.877Z,22.93
2017-12-30T18:02:45.942Z,71.70
2017-12-30T18:05:13.437Z,23.63
2017-12-30T18:07:39.832Z,22.40
2017-12-30T18:10:06.113Z,24.53
2017-12-30T18:12:32.394Z,21.27
2017-12-30T18:14:58.648Z,20.07
2017-12-30T18:17:26.127Z,24.63
2017-12-30T18:19:52.707Z,22.47
2017-12-30T18:22:19.039Z,16.03
2017-12-30T18:24:45.350Z,20.97
2017-12-30T18:27:11.709Z,20.63
2017-12-30T18:29:37.974Z,19.60
2017-12-30T18:32:04.262Z,29.93
2017-12-30T18:34:31.293Z,21.93
2017-12-30T18:36:58.291Z,20.83
2017-12-30T18:39:24.590Z,15.87
2017-12-30T18:41:50.917Z,23.43
2017-12-30T18:44:17.202Z,20.47
2017-12-30T18:46:43.469Z,22.77
2017-12-30T18:49:09.781Z,18.83
2017-12-30T18:51:36.073Z,21.97
2017-12-30T18:54:02.365Z,29.13
2017-12-30T18:56:28.657Z,23.07
2017-12-30T18:58:55.018Z,30.13
2017-12-30T19:01:23.546Z,22.50
2017-12-30T19:03:49.897Z,21.67
2017-12-30T19:06:16.202Z,24.40
2017-12-30T19:08:42.461Z,23.23
2017-12-30T19:11:08.780Z,18.63
2017-12-30T19:13:35.050Z,17.33
2017-12-30T19:16:01.376Z,19.20
2017-12-30T19:18:27.703Z,15.37
2017-12-30T19:20:53.990Z,19.80
2017-12-30T19:23:20.276Z,19.47
2017-12-30T19:25:47.364Z,16.03
2017-12-30T19:28:13.630Z,18.13
2017-12-30T19:30:40.643Z,14.90
2017-12-30T19:33:07.754Z,25.17
2017-12-30T19:35:34.018Z,16.67
2017-12-30T19:38:00.337Z,21.63
2017-12-30T19:40:26.708Z,15.37
2017-12-30T19:42:52.969Z,17.40
2017-12-30T19:45:19.268Z,13.20
2017-12-30T19:47:46.321Z,12.83
2017-12-30T19:50:12.585Z,12.03
2017-12-30T19:52:38.859Z,18.47
2017-12-30T19:55:05.279Z,19.97
2017-12-30T19:57:31.592Z,15.37
2017-12-30T19:59:57.896Z,10.83
2017-12-30T20:02:24.173Z,15.57
2017-12-30T20:04:50.431Z,17.40
2017-12-30T20:07:16.775Z,12.43
2017-12-30T20:09:43.098Z,10.07
2017-12-30T20:12:09.387Z,15.03
2017-12-30T20:14:35.689Z,12.67
2017-12-30T20:17:02.043Z,10.10
2017-12-30T20:19:28.308Z,14.80
2017-12-30T20:21:55.325Z,12.30
2017-12-30T20:24:21.702Z,13.03
2017-12-30T20:26:48.001Z,15.23
2017-12-30T20:29:15.058Z,7.97
2017-12-30T20:31:41.379Z,10.27
2017-12-30T20:34:07.654Z,11.33
2017-12-30T20:36:33.918Z,8.80
2017-12-30T20:39:00.218Z,11.07
2017-12-30T20:41:26.529Z,10.77
2017-12-30T20:43:52.836Z,11.60
2017-12-30T20:46:19.133Z,10.93
2017-12-30T20:48:45.393Z,14.07
2017-12-30T20:51:11.734Z,5.73
2017-12-30T20:53:38.826Z,7.50
2017-12-30T20:56:05.123Z,6.57
2017-12-30T20:58:31.393Z,9.93
2017-12-30T21:00:58.557Z,8.80
2017-12-30T21:03:24.939Z,8.43
2017-12-30T21:05:51.215Z,6.10
2017-12-30T21:08:17.503Z,6.90
2017-12-30T21:10:43.876Z,13.13
2017-12-30T21:13:10.138Z,13.23
2017-12-30T21:15:36.475Z,9.50
2017-12-30T21:18:02.743Z,10.80
2017-12-30T21:20:29.076Z,9.33
2017-12-30T21:22:55.399Z,9.67
2017-12-30T21:25:21.704Z,6.27
2017-12-30T21:27:48.722Z,12.60
2017-12-30T21:30:15.809Z,4.97
2017-12-30T21:32:42.068Z,10.83
2017-12-30T21:35:09.129Z,9.63
2017-12-30T21:37:35.414Z,7.87
2017-12-30T21:40:01.789Z,7.93
2017-12-30T21:42:28.085Z,6.33
2017-12-30T21:44:54.439Z,7.27
2017-12-30T21:47:20.705Z,6.00
2017-12-30T21:49:46.981Z,5.40
2017-12-30T21:52:18.662Z,3.10
2017-12-30T21:54:45.025Z,5.37
2017-12-30T21:57:11.397Z,9.37
2017-12-30T21:59:37.784Z,8.27
2017-12-30T22:02:04.053Z,6.03
2017-12-30T22:04:31.119Z,5.50
2017-12-30T22:06:57.403Z,8.20
2017-12-30T22:09:24.426Z,4.57
2017-12-30T22:11:51.483Z,4.07
2017-12-30T22:14:17.812Z,8.40
2017-12-30T22:16:44.070Z,2.83
2017-12-30T22:19:10.342Z,9.80
2017-12-30T22:21:36.627Z,4.43
2017-12-30T22:24:03.645Z,22.20
2017-12-30T22:26:29.921Z,4.10
2017-12-30T22:28:56.218Z,6.23
2017-12-30T22:31:22.527Z,3.40
2017-12-30T22:33:48.800Z,1.13
2017-12-30T22:36:15.204Z,5.57
2017-12-30T22:38:41.469Z,2.90
2017-12-30T22:41:07.789Z,4.23
2017-12-30T22:43:34.089Z,2.93
2017-12-30T22:46:00.433Z,1.70
2017-12-30T22:48:26.746Z,2.83
2017-12-30T22:50:53.032Z,2.83
2017-12-30T22:53:20.037Z,3.57
2017-12-30T22:55:46.351Z,1.77
2017-12-30T22:58:12.597Z,5.27
2017-12-30T23:00:38.893Z,2.03
2017-12-30T23:03:05.660Z,3.63
2017-12-30T23:05:32.109Z,4.03
2017-12-30T23:07:58.407Z,3.47
2017-12-30T23:10:24.727Z,2.23
2017-12-30T23:12:51.048Z,2.57
2017-12-30T23:15:17.365Z,4.63
2017-12-30T23:17:43.650Z,1.67
2017-12-30T23:20:10.003Z,0.87
2017-12-30T23:22:36.281Z,3.97
2017-12-30T23:25:02.630Z,3.60
2017-12-30T23:27:28.946Z,4.37
2017-12-30T23:29:55.246Z,2.77
2017-12-30T23:32:21.570Z,6.00
2017-12-30T23:34:47.882Z,5.13
2017-12-30T23:37:14.181Z,6.20
2017-12-30T23:39:40.517Z,4.93
2017-12-30T23:42:06.801Z,4.10
2017-12-30T23:44:33.529Z,6.73
2017-12-30T23:47:00.282Z,4.43
2017-12-30T23:49:26.600Z,3.30
2017-12-30T23:51:52.854Z,1.40
2017-12-30T23:54:19.197Z,3.53
2017-12-30T23:56:45.562Z,2.67
2017-12-30T23:59:11.981Z,7.00
